.
WxDataArchive / Data Records for 2007-12-20
2007-12-19 December 2007 2007-12-21

Data Records for Thursday, 20 December 2007

Time	Temp	Chill	HIndex	Humid	Dewpt	 Wind 	HiWind	WindDir	Rain 	Barom 
-----	----	-----	------	-----	-----	------	------	-------	-----	----- 
00:00	25.4	25.4	25.4	89	22.6	0	0	---	0.00	30.198 
00:05	25.3	25.3	25.3	89	22.5	0	0	---	0.00	30.197 
00:10	25.0	25.0	25.0	89	22.2	0	0	---	0.00	30.194 
00:15	24.8	24.8	24.8	89	22.0	0	0	---	0.00	30.191 
00:20	24.5	24.5	24.5	89	21.7	0	0	---	0.00	30.183 
00:25	24.2	24.2	24.2	89	21.4	0	0	---	0.00	30.183 
00:30	23.9	23.9	23.9	89	21.1	0	0	---	0.00	30.181 
00:35	23.6	23.6	23.6	89	20.8	0	0	---	0.00	30.182 
00:40	23.3	23.3	23.3	89	20.5	0	0	---	0.00	30.178 
00:45	23.0	23.0	23.0	89	20.3	0	0	---	0.00	30.178 
00:50	22.9	22.9	22.9	89	20.2	0	0	---	0.00	30.169 
00:55	22.5	22.5	22.5	90	20.0	0	0	---	0.00	30.167 
01:00	22.4	22.4	22.4	90	19.9	0	0	---	0.00	30.171 
01:05	22.2	22.2	22.2	90	19.7	0	0	---	0.00	30.166 
01:10	22.1	22.1	22.1	90	19.6	0	0	---	0.00	30.167 
01:15	21.8	21.8	21.8	90	19.3	0	0	---	0.00	30.167 
01:20	21.6	21.6	21.6	90	19.1	0	0	---	0.00	30.164 
01:25	21.3	21.3	21.3	90	18.8	0	0	---	0.00	30.168 
01:30	21.0	21.0	21.0	90	18.5	0	0	---	0.00	30.167 
01:35	21.0	21.0	21.0	90	18.5	0	0	---	0.00	30.164 
01:40	21.0	21.0	21.0	91	18.8	0	0	---	0.00	30.164 
01:45	21.0	21.0	21.0	91	18.8	0	0	---	0.00	30.162 
01:50	21.0	21.0	21.0	91	18.8	0	0	---	0.00	30.157 
01:55	21.0	21.0	21.0	91	18.8	0	0	---	0.00	30.163 
02:00	21.0	21.0	21.0	91	18.8	0	0	---	0.00	30.166 
02:05	20.8	20.8	20.8	91	18.6	0	0	---	0.00	30.170 
02:10	20.8	20.8	20.8	91	18.6	0	0	---	0.00	30.173 
02:15	20.6	20.6	20.6	91	18.4	0	0	---	0.00	30.174 
02:20	20.5	20.5	20.5	91	18.3	0	0	---	0.00	30.173 
02:25	20.3	20.3	20.3	91	18.1	0	0	---	0.00	30.177 
02:30	20.2	20.2	20.2	91	18.0	0	0	---	0.00	30.178 
02:35	20.0	20.0	20.0	91	17.8	0	0	---	0.00	30.179 
02:40	19.7	19.7	19.7	91	17.5	0	0	---	0.00	30.179 
02:45	19.5	19.5	19.5	91	17.3	0	0	---	0.00	30.180 
02:50	19.5	19.5	19.5	91	17.3	0	0	---	0.00	30.181 
02:55	19.4	19.4	19.4	91	17.2	0	0	---	0.00	30.183 
03:00	19.2	19.2	19.2	91	17.0	0	0	---	0.00	30.183 
03:05	19.1	19.1	19.1	91	16.9	0	0	---	0.00	30.184 
03:10	19.1	19.1	19.1	91	16.9	0	0	---	0.00	30.186 
03:15	18.9	18.9	18.9	91	16.7	0	0	---	0.00	30.193 
03:20	18.8	18.8	18.8	91	16.6	0	0	---	0.00	30.190 
03:25	18.8	18.8	18.8	91	16.6	0	0	---	0.00	30.185 
03:30	18.8	18.8	18.8	91	16.6	0	0	---	0.00	30.183 
03:35	18.8	18.8	18.8	91	16.6	0	0	---	0.00	30.182 
03:40	18.8	18.8	18.8	91	16.6	0	0	---	0.00	30.181 
03:45	18.6	18.6	18.6	91	16.4	0	0	---	0.00	30.182 
03:50	18.6	18.6	18.6	91	16.4	0	0	---	0.00	30.180 
03:55	18.4	18.4	18.4	91	16.2	0	0	---	0.00	30.181 
04:00	18.6	18.6	18.6	91	16.4	0	0	---	0.00	30.179 
04:05	18.6	18.6	18.6	91	16.4	0	0	---	0.00	30.180 
04:10	18.6	18.6	18.6	91	16.4	0	0	---	0.00	30.181 
04:15	18.4	18.4	18.4	91	16.2	0	0	---	0.00	30.179 
04:20	18.4	18.4	18.4	91	16.2	0	0	---	0.00	30.175 
04:25	18.3	18.3	18.3	91	16.1	0	0	---	0.00	30.177 
04:30	18.3	18.3	18.3	91	16.1	0	0	---	0.00	30.175 
04:35	18.3	18.3	18.3	91	16.1	0	0	---	0.00	30.170 
04:40	18.4	18.4	18.4	91	16.2	0	0	---	0.00	30.169 
04:45	18.4	18.4	18.4	91	16.2	0	0	---	0.00	30.170 
04:50	18.3	18.3	18.3	91	16.1	0	0	---	0.00	30.172 
04:55	18.3	18.3	18.3	91	16.1	0	0	---	0.00	30.171 
05:00	18.1	18.1	18.1	91	15.9	0	0	---	0.00	30.172 
05:05	18.0	18.0	18.0	90	15.6	0	0	---	0.00	30.172 
05:10	17.8	17.8	17.8	90	15.4	0	0	---	0.00	30.173 
05:15	17.5	17.5	17.5	90	15.1	0	0	---	0.00	30.174 
05:20	17.3	17.3	17.3	90	14.9	0	0	---	0.00	30.174 
05:25	17.2	17.2	17.2	90	14.8	0	0	---	0.00	30.173 
05:30	17.2	17.2	17.2	90	14.8	0	0	---	0.00	30.173 
05:35	17.0	17.0	17.0	90	14.6	0	0	---	0.00	30.169 
05:40	16.9	16.9	16.9	90	14.5	0	0	---	0.00	30.168 
05:45	16.7	16.7	16.7	90	14.3	0	1	248	0.00	30.168 
05:50	16.7	16.7	16.7	90	14.3	0	1	248	0.00	30.166 
05:55	16.5	16.5	16.5	90	14.1	0	1	248	0.00	30.164 
06:00	16.4	16.4	16.4	90	14.0	0	1	248	0.00	30.161 
06:05	16.2	16.2	16.2	90	13.8	0	1	248	0.00	30.163 
06:10	16.1	16.1	16.1	90	13.7	0	1	248	0.00	30.163 
06:15	16.1	16.1	16.1	91	13.9	0	1	248	0.00	30.168 
06:20	15.9	15.9	15.9	91	13.7	0	1	248	0.00	30.168 
06:25	15.7	15.7	15.7	91	13.5	0	0	---	0.00	30.168 
06:30	15.4	15.4	15.4	90	13.0	0	0	---	0.00	30.170 
06:35	15.2	15.2	15.2	90	12.8	0	0	---	0.00	30.170 
06:40	15.2	15.2	15.2	90	12.8	0	2	248	0.00	30.168 
06:45	15.4	15.4	15.4	91	13.3	1	2	248	0.00	30.166 
06:50	15.2	15.2	15.2	91	13.1	0	2	248	0.00	30.166 
06:55	15.4	15.4	15.4	91	13.3	1	2	225	0.00	30.162 
07:00	15.4	15.4	15.4	91	13.3	0	2	202	0.00	30.161 
07:05	15.7	15.7	15.7	91	13.5	0	1	202	0.00	30.161 
07:10	15.9	15.9	15.9	91	13.7	0	2	202	0.00	30.160 
07:15	16.1	16.1	16.1	90	13.7	1	3	202	0.00	30.161 
07:20	16.1	16.1	16.1	90	13.7	1	3	112	0.00	30.163 
07:25	16.1	16.1	16.1	90	13.7	1	2	112	0.00	30.161 
07:30	16.1	16.1	16.1	90	13.7	0	2	112	0.00	30.159 
07:35	15.9	15.9	15.9	89	13.2	1	2	112	0.00	30.158 
07:40	15.9	15.9	15.9	89	13.2	0	3	112	0.00	30.156 
07:45	16.1	16.1	16.1	89	13.4	1	3	112	0.00	30.154 
07:50	16.2	16.2	16.2	90	13.8	1	2	112	0.00	30.155 
07:55	16.5	16.5	16.5	90	14.1	1	3	112	0.00	30.154 
08:00	16.7	16.7	16.7	90	14.3	1	3	112	0.00	30.148 
08:05	17.0	17.0	17.0	90	14.6	1	3	112	0.00	30.146 
08:10	17.3	17.3	17.3	90	14.9	1	3	112	0.00	30.141 
08:15	17.7	17.7	17.7	90	15.3	1	3	112	0.00	30.139 
08:20	17.8	17.8	17.8	90	15.4	2	4	112	0.00	30.139 
08:25	18.0	18.0	18.0	90	15.6	1	3	90	0.00	30.138 
08:30	18.0	18.0	18.0	90	15.6	2	4	112	0.00	30.136 
08:35	18.1	18.1	18.1	91	15.9	2	3	112	0.00	30.137 
08:40	18.4	18.4	18.4	91	16.2	1	4	112	0.00	30.136 
08:45	18.6	18.6	18.6	91	16.4	1	3	112	0.00	30.136 
08:50	18.6	18.6	18.6	90	16.2	1	3	90	0.00	30.137 
08:55	18.6	18.6	18.6	90	16.2	2	5	90	0.00	30.128 
09:00	18.8	18.8	18.8	91	16.6	2	4	90	0.00	30.129 
09:05	18.9	18.9	18.9	91	16.7	2	4	90	0.00	30.129 
09:10	19.1	19.1	19.1	91	16.9	2	4	90	0.00	30.129 
09:15	18.9	18.9	18.9	91	16.7	1	4	112	0.00	30.130 
09:20	19.1	19.1	19.1	91	16.9	2	4	112	0.00	30.125 
09:25	19.2	19.2	19.2	91	17.0	2	4	90	0.00	30.124 
09:30	19.4	19.4	19.4	91	17.2	2	5	90	0.00	30.121 
09:35	19.7	19.7	19.7	91	17.5	1	4	90	0.00	30.119 
09:40	20.0	20.0	20.0	91	17.8	2	4	90	0.00	30.118 
09:45	20.3	20.3	20.3	92	18.4	2	4	112	0.00	30.120 
09:50	20.8	20.8	20.8	92	18.9	2	5	90	0.00	30.121 
09:55	21.1	21.1	21.1	92	19.1	2	4	90	0.00	30.124 
10:00	21.6	21.6	21.6	92	19.6	2	4	90	0.00	30.126 
10:05	22.1	22.1	22.1	92	20.1	1	3	112	0.00	30.130 
10:10	23.0	23.0	23.0	93	21.3	1	4	112	0.00	30.140 
10:15	23.3	23.3	23.3	93	21.6	1	5	112	0.00	30.154 
10:20	23.5	23.5	23.5	92	21.5	1	3	135	0.00	30.166 
10:25	23.6	23.6	23.6	92	21.6	1	3	135	0.00	30.172 
10:30	23.8	23.8	23.8	92	21.8	1	3	135	0.00	30.169 
10:35	23.9	23.9	23.9	92	21.9	1	2	135	0.00	30.170 
10:40	24.1	24.1	24.1	92	22.1	1	3	90	0.00	30.167 
10:45	24.1	24.1	24.1	92	22.1	1	3	90	0.00	30.165 
10:50	24.2	24.2	24.2	92	22.2	1	3	112	0.00	30.164 
10:55	24.4	24.4	24.4	92	22.4	2	4	135	0.00	30.157 
11:00	24.8	24.8	24.8	93	23.1	1	3	112	0.00	30.163 
11:05	25.1	25.1	25.1	93	23.4	1	3	112	0.00	30.165 
11:10	25.3	25.3	25.3	93	23.6	1	3	135	0.00	30.163 
11:15	25.6	25.6	25.6	93	23.9	1	4	135	0.00	30.154 
11:20	25.7	25.7	25.7	93	24.0	1	4	112	0.00	30.151 
11:25	25.8	25.8	25.8	92	23.8	2	5	90	0.00	30.144 
11:30	25.8	25.8	25.8	92	23.8	3	6	90	0.00	30.142 
11:35	25.8	25.8	25.8	91	23.5	2	5	90	0.00	30.140 
11:40	26.0	26.0	26.0	90	23.5	3	7	112	0.00	30.138 
11:45	26.3	26.3	26.3	88	23.2	3	7	112	0.00	30.138 
11:50	26.6	26.6	26.6	87	23.3	3	5	112	0.00	30.136 
11:55	26.7	26.7	26.7	86	23.1	3	6	112	0.00	30.137 
12:00	27.2	27.2	27.2	85	23.3	2	5	112	0.00	30.136 
12:05	27.6	27.6	27.6	84	23.4	2	6	112	0.00	30.137 
12:10	27.8	27.8	27.8	83	23.3	2	4	90	0.00	30.136 
12:15	27.9	27.9	27.9	83	23.4	3	6	90	0.00	30.134 
12:20	28.4	28.4	28.4	82	23.6	3	6	112	0.00	30.133 
12:25	28.4	28.4	28.4	81	23.3	3	6	90	0.00	30.126 
12:30	28.4	28.4	28.4	81	23.3	3	6	90	0.00	30.123 
12:35	28.5	28.5	28.5	81	23.4	3	6	112	0.00	30.122 
12:40	28.7	24.3	28.7	81	23.6	4	7	90	0.00	30.123 
12:45	28.8	28.8	28.8	81	23.7	3	6	90	0.00	30.122 
12:50	29.3	29.3	29.3	81	24.2	3	6	112	0.00	30.122 
12:55	29.5	29.5	29.5	80	24.1	2	5	112	0.00	30.121 
13:00	29.7	29.7	29.7	79	24.0	3	7	112	0.00	30.119 
13:05	29.8	29.8	29.8	80	24.4	3	7	90	0.00	30.117 
13:10	30.0	25.8	30.0	79	24.3	4	9	112	0.00	30.110 
13:15	30.3	30.3	30.3	78	24.3	3	7	112	0.00	30.106 
13:20	30.3	26.1	30.3	79	24.6	4	7	90	0.00	30.103 
13:25	30.1	24.8	30.1	78	24.1	5	11	90	0.00	30.097 
13:30	30.1	25.9	30.1	78	24.1	4	7	112	0.00	30.095 
13:35	30.3	26.1	30.3	78	24.3	4	7	112	0.00	30.093 
13:40	30.4	30.4	30.4	78	24.4	3	7	112	0.00	30.092 
13:45	30.6	26.5	30.6	77	24.3	4	7	90	0.00	30.090 
13:50	30.9	30.9	30.9	78	24.9	2	7	135	0.00	30.089 
13:55	31.2	31.2	31.2	77	24.8	3	6	112	0.00	30.088 
14:00	31.3	31.3	31.3	77	24.9	3	6	112	0.00	30.087 
14:05	31.5	31.5	31.5	77	25.1	3	9	112	0.00	30.088 
14:10	31.6	31.6	31.6	77	25.2	3	6	112	0.00	30.090 
14:15	31.8	31.8	31.8	76	25.1	3	7	112	0.00	30.089 
14:20	31.8	27.8	31.8	76	25.1	4	7	112	0.00	30.088 
14:25	31.9	28.0	31.9	76	25.2	4	9	112	0.00	30.082 
14:30	31.9	28.0	31.9	76	25.2	4	9	112	0.00	30.078 
14:35	32.1	28.2	32.1	76	25.4	4	11	112	0.00	30.080 
14:40	32.4	28.5	32.4	76	25.7	4	7	112	0.00	30.075 
14:45	32.5	28.7	32.5	76	25.8	4	7	112	0.00	30.073 
14:50	32.7	28.9	32.7	75	25.7	4	9	112	0.00	30.069 
14:55	32.8	29.0	32.8	75	25.8	4	9	112	0.00	30.067 
15:00	32.9	29.1	32.9	75	25.9	4	7	112	0.00	30.059 
15:05	32.9	29.1	32.9	75	25.9	4	7	112	0.00	30.056 
15:10	33.1	33.1	33.1	75	26.1	3	8	90	0.00	30.056 
15:15	33.1	33.1	33.1	76	26.4	2	9	112	0.00	30.056 
15:20	33.1	33.1	33.1	77	26.7	3	6	112	0.00	30.054 
15:25	33.1	29.3	33.1	77	26.7	4	6	90	0.00	30.053 
15:30	33.1	33.1	33.1	76	26.4	3	6	90	0.00	30.055 
15:35	33.2	29.5	33.2	76	26.5	4	9	90	0.01	30.055 
15:40	33.1	28.4	33.1	76	26.4	5	10	90	0.00	30.056 
15:45	33.2	33.2	33.2	76	26.5	3	7	90	0.00	30.058 
15:50	33.2	29.5	33.2	76	26.5	4	9	90	0.00	30.058 
15:55	33.2	29.5	33.2	77	26.8	4	8	90	0.00	30.058 
16:00	33.2	29.5	33.2	76	26.5	4	7	90	0.00	30.056 
16:05	33.1	33.1	33.1	77	26.7	3	6	90	0.00	30.056 
16:10	33.1	29.3	33.1	77	26.7	4	9	90	0.00	30.052 
16:15	32.9	32.9	32.9	77	26.5	3	7	112	0.00	30.043 
16:20	32.8	29.0	32.8	77	26.4	4	9	112	0.00	30.042 
16:25	32.7	32.7	32.7	77	26.3	2	6	112	0.00	30.041 
16:30	32.7	28.9	32.7	77	26.3	4	7	112	0.00	30.041 
16:35	32.5	32.5	32.5	77	26.1	3	7	112	0.00	30.041 
16:40	32.4	28.5	32.4	77	26.0	4	10	112	0.00	30.043 
16:45	32.2	32.2	32.2	77	25.8	3	7	112	0.00	30.048 
16:50	32.1	32.1	32.1	77	25.7	3	5	90	0.00	30.047 
16:55	32.1	32.1	32.1	77	25.7	3	7	90	0.00	30.050 
17:00	31.9	31.9	31.9	77	25.5	2	4	90	0.00	30.049 
17:05	31.8	31.8	31.8	77	25.4	3	6	112	0.00	30.044 
17:10	31.6	31.6	31.6	77	25.2	3	7	112	0.00	30.044 
17:15	31.5	31.5	31.5	78	25.4	2	4	112	0.00	30.045 
17:20	31.2	31.2	31.2	78	25.2	2	4	112	0.00	30.046 
17:25	31.0	31.0	31.0	79	25.3	2	6	112	0.00	30.047 
17:30	30.9	30.9	30.9	79	25.2	2	6	90	0.00	30.047 
17:35	31.0	31.0	31.0	79	25.3	3	6	112	0.00	30.051 
17:40	31.2	31.2	31.2	78	25.2	3	6	90	0.00	30.058 
17:45	31.3	31.3	31.3	78	25.3	3	6	112	0.00	30.055 
17:50	31.3	31.3	31.3	78	25.3	3	7	90	0.00	30.059 
17:55	31.3	31.3	31.3	78	25.3	3	7	112	0.00	30.058 
18:00	31.2	31.2	31.2	79	25.5	3	9	112	0.00	30.051 
18:05	30.9	30.9	30.9	79	25.2	2	6	112	0.00	30.054 
18:10	30.7	30.7	30.7	80	25.3	3	6	112	0.00	30.056 
18:15	30.6	30.6	30.6	81	25.5	2	7	112	0.00	30.059 
18:20	30.4	30.4	30.4	81	25.3	2	6	112	0.00	30.063 
18:25	30.3	26.1	30.3	81	25.2	4	6	112	0.00	30.063 
18:30	30.1	30.1	30.1	81	25.0	3	6	112	0.00	30.062 
18:35	30.1	30.1	30.1	82	25.3	3	7	112	0.00	30.063 
18:40	30.1	30.1	30.1	82	25.3	3	6	90	0.00	30.065 
18:45	30.0	30.0	30.0	82	25.2	2	7	112	0.00	30.069 
18:50	30.0	30.0	30.0	82	25.2	2	6	112	0.00	30.071 
18:55	30.0	30.0	30.0	82	25.2	2	6	112	0.00	30.074 
19:00	30.0	30.0	30.0	82	25.2	2	6	112	0.00	30.076 
19:05	30.0	30.0	30.0	82	25.2	3	6	90	0.00	30.073 
19:10	30.0	30.0	30.0	82	25.2	2	6	112	0.00	30.069 
19:15	30.0	30.0	30.0	82	25.2	2	4	112	0.00	30.069 
19:20	30.0	30.0	30.0	80	24.6	3	5	112	0.00	30.069 
19:25	30.0	30.0	30.0	82	25.2	2	6	112	0.00	30.067 
19:30	29.8	29.8	29.8	82	25.0	3	6	112	0.00	30.063 
19:35	29.8	29.8	29.8	82	25.0	3	5	112	0.00	30.064 
19:40	29.8	29.8	29.8	82	25.0	3	10	90	0.00	30.064 
19:45	29.8	29.8	29.8	82	25.0	3	6	90	0.00	30.063 
19:50	30.0	30.0	30.0	82	25.2	3	6	112	0.00	30.068 
19:55	30.0	30.0	30.0	82	25.2	3	6	90	0.00	30.065 
20:00	30.0	30.0	30.0	82	25.2	2	7	90	0.00	30.063 
20:05	30.0	30.0	30.0	81	24.9	3	6	90	0.00	30.060 
20:10	30.0	30.0	30.0	81	24.9	3	5	90	0.00	30.060 
20:15	30.0	25.8	30.0	81	24.9	4	10	112	0.00	30.057 
20:20	30.0	30.0	30.0	81	24.9	3	7	112	0.00	30.048 
20:25	30.1	25.9	30.1	81	25.0	4	9	90	0.00	30.047 
20:30	30.1	25.9	30.1	81	25.0	4	9	90	0.00	30.044 
20:35	30.3	26.1	30.3	81	25.2	4	11	112	0.00	30.042 
20:40	30.7	24.7	30.7	80	25.3	6	13	90	0.00	30.039 
20:45	30.7	26.6	30.7	80	25.3	4	10	90	0.00	30.040 
20:50	30.7	26.6	30.7	80	25.3	4	11	112	0.00	30.042 
20:55	30.7	25.5	30.7	80	25.3	5	10	112	0.00	30.043 
21:00	30.6	30.6	30.6	80	25.2	3	7	112	0.00	30.045 
21:05	30.6	26.5	30.6	80	25.2	4	9	112	0.00	30.045 
21:10	30.6	30.6	30.6	80	25.2	3	6	112	0.00	30.050 
21:15	30.6	26.5	30.6	80	25.2	4	9	90	0.00	30.046 
21:20	30.4	30.4	30.4	80	25.0	3	8	90	0.00	30.041 
21:25	30.3	30.3	30.3	80	24.9	3	6	112	0.00	30.043 
21:30	30.1	30.1	30.1	80	24.7	3	6	112	0.00	30.044 
21:35	30.1	30.1	30.1	81	25.0	3	6	112	0.00	30.040 
21:40	30.0	30.0	30.0	81	24.9	3	6	112	0.00	30.041 
21:45	29.8	29.8	29.8	81	24.7	2	6	90	0.00	30.044 
21:50	29.7	29.7	29.7	81	24.6	3	6	112	0.00	30.050 
21:55	29.7	29.7	29.7	81	24.6	3	5	90	0.00	30.048 
22:00	29.7	29.7	29.7	81	24.6	3	6	112	0.00	30.045 
22:05	29.8	29.8	29.8	81	24.7	3	7	90	0.00	30.047 
22:10	29.7	29.7	29.7	80	24.3	3	5	112	0.00	30.043 
22:15	29.5	29.5	29.5	81	24.4	3	5	90	0.00	30.040 
22:20	29.4	29.4	29.4	81	24.3	3	6	112	0.00	30.039 
22:25	29.4	29.4	29.4	81	24.3	3	5	112	0.00	30.038 
22:30	29.4	29.4	29.4	81	24.3	3	5	112	0.00	30.038 
22:35	29.4	29.4	29.4	81	24.3	2	3	112	0.00	30.039 
22:40	29.3	29.3	29.3	81	24.2	1	4	90	0.00	30.039 
22:45	29.1	29.1	29.1	81	24.0	2	5	90	0.00	30.039 
22:50	29.1	29.1	29.1	81	24.0	2	5	112	0.00	30.038 
22:55	29.1	29.1	29.1	81	24.0	3	5	112	0.00	30.035 
23:00	29.3	29.3	29.3	81	24.2	3	6	90	0.00	30.028 
23:05	29.1	29.1	29.1	81	24.0	2	5	90	0.00	30.027 
23:10	29.0	29.0	29.0	81	23.9	2	5	112	0.00	30.026 
23:15	28.7	28.7	28.7	81	23.6	2	6	112	0.00	30.027 
23:20	28.5	28.5	28.5	82	23.7	2	5	90	0.00	30.026 
23:25	28.4	28.4	28.4	82	23.6	3	6	112	0.00	30.028 
23:30	28.2	28.2	28.2	83	23.7	3	6	112	0.00	30.025 
23:35	28.2	28.2	28.2	83	23.7	3	6	90	0.00	30.024 
23:40	28.1	28.1	28.1	83	23.6	3	9	90	0.00	30.023 
23:45	28.1	28.1	28.1	83	23.6	3	7	90	0.00	30.022 
23:50	28.1	23.6	28.1	83	23.6	4	7	90	0.00	30.019 
23:55	28.1	28.1	28.1	83	23.6	3	7	90	0.00	30.015 

CoCoRaHS
IN-AL-39
A2 Web Hosting
Creative Commons License
GoDaddy
Look for:

loaded 2017-12-11 12:15:24 • last modified 2010-11-18 10:43:29
Privacy PolicyDisclaimer
• wx.awcolley.com is powered by PmWiki v.2002016 •
• all content (unless otherwise noted) © 2017 A W Colley